Time;durP1;ratioP1;P1;durP2;ratioP2;P2;SDS_P1;SDS_P2;PMS_P1;PMS_P2;Temp;Humidity;BMP_temperature;BMP_pressure;BME280_temperature;BME280_humidity;BME280_pressure;Samples;Min_cycle;Max_cycle;Signal;HPM_P1;HPM_P2
2021/01/24 00:01:13;;;;;;;8.85;7.85;;;;;;;10.03;51.78;98858.44;1750403;79;21236;-63
2021/01/24 00:03:41;;;;;;;9.48;8.45;;;;;;;10.03;51.79;98853.13;1749657;79;21150;-63
2021/01/24 00:06:09;;;;;;;9.63;8.63;;;;;;;10.03;51.79;98848.64;1749837;79;21445;-63
2021/01/24 00:08:37;;;;;;;10.10;9.05;;;;;;;10.04;51.80;98846.80;1708709;82;21192;-62
2021/01/24 00:11:04;;;;;;;9.88;8.78;;;;;;;10.03;51.81;98851.30;1744037;79;21142;-64
2021/01/24 00:13:32;;;;;;;10.03;8.58;;;;;;;10.02;51.82;98837.73;1743882;79;21631;-63
2021/01/24 00:15:59;;;;;;;8.73;7.83;;;;;;;10.03;51.85;98843.84;1747537;79;21175;-63
2021/01/24 00:18:26;;;;;;;9.78;8.13;;;;;;;10.02;51.82;98825.78;1747504;79;21372;-64
2021/01/24 00:20:53;;;;;;;10.40;8.63;;;;;;;10.02;51.86;98827.59;1724083;81;21181;-63
2021/01/24 00:23:21;;;;;;;9.68;8.68;;;;;;;10.02;51.85;98823.61;1749910;79;21164;-63
2021/01/24 00:28:30;;;;;;;9.75;8.75;;;;;;;10.06;51.88;98820.08;1847132;77;28749;-63
2021/01/24 00:30:58;;;;;;;9.35;8.35;;;;;;;10.03;51.87;98824.76;1822355;78;21157;-62
2021/01/24 00:33:26;;;;;;;9.80;8.83;;;;;;;10.02;51.90;98825.78;1852988;77;21355;-62
2021/01/24 00:35:54;;;;;;;11.10;8.75;;;;;;;10.02;51.90;98824.45;1837927;77;21203;-62
2021/01/24 00:38:21;;;;;;;11.57;8.88;;;;;;;10.03;51.88;98819.45;1847188;77;21063;-62
2021/01/24 00:40:48;;;;;;;10.45;8.70;;;;;;;10.02;51.90;98819.15;1834554;77;21143;-62
2021/01/24 00:43:15;;;;;;;9.63;8.55;;;;;;;10.03;51.93;98817.31;1807539;77;21176;-61
2021/01/24 00:45:43;;;;;;;9.90;8.90;;;;;;;10.03;51.92;98817.31;1825728;77;21359;-62
2021/01/24 00:48:10;;;;;;;9.35;7.85;;;;;;;10.03;51.90;98796.08;1800011;77;21158;-63
2021/01/24 00:50:37;;;;;;;9.83;8.65;;;;;;;10.03;51.93;98796.08;1821644;78;21595;-62
2021/01/24 00:53:07;;;;;;;9.15;8.08;;;;;;;10.03;51.94;98791.59;1830530;77;21190;-63
2021/01/24 00:55:34;;;;;;;9.68;8.40;;;;;;;10.03;51.94;98792.10;1824503;78;21560;-63
2021/01/24 00:58:03;;;;;;;9.08;7.87;;;;;;;10.03;51.95;98789.45;1820242;78;21195;-62
2021/01/24 01:00:30;;;;;;;9.00;8.10;;;;;;;10.03;51.95;98794.24;1820652;78;21155;-62
2021/01/24 01:02:58;;;;;;;10.18;8.70;;;;;;;10.04;51.95;98796.38;1802084;78;21138;-63
2021/01/24 01:05:25;;;;;;;9.63;8.35;;;;;;;10.03;51.96;98790.27;1791572;77;21258;-64
2021/01/24 01:07:52;;;;;;;9.20;8.10;;;;;;;10.04;51.96;98786.61;1827746;77;21132;-63
2021/01/24 01:10:20;;;;;;;10.08;8.88;;;;;;;10.03;51.97;98782.30;1825018;77;21413;-62
2021/01/24 01:12:48;;;;;;;9.95;8.65;;;;;;;10.03;51.99;98778.32;1848308;77;21135;-62
2021/01/24 01:15:15;;;;;;;9.68;8.35;;;;;;;10.03;52.00;98782.30;1840541;77;21158;-62
2021/01/24 01:17:43;;;;;;;9.50;8.40;;;;;;;10.03;52.00;98773.02;1822911;77;21207;-63
2021/01/24 01:20:11;;;;;;;9.55;8.50;;;;;;;10.03;52.02;98769.03;1836377;77;21154;-63
2021/01/24 01:22:39;;;;;;;8.75;7.72;;;;;;;10.03;52.03;98773.02;1838109;77;21361;-63
2021/01/24 01:25:07;;;;;;;9.28;8.15;;;;;;;10.03;52.02;98769.03;1855789;77;21123;-63
2021/01/24 01:27:36;;;;;;;9.25;8.08;;;;;;;10.03;52.06;98769.03;1845165;77;21156;-65
2021/01/24 01:30:06;;;;;;;9.05;7.58;;;;;;;10.04;52.03;98769.84;1843263;77;21220;-63
2021/01/24 01:32:34;;;;;;;10.18;8.50;;;;;;;10.04;52.04;98780.46;1842956;77;21134;-63
2021/01/24 01:35:03;;;;;;;9.30;8.18;;;;;;;10.04;52.04;98773.83;1831313;77;21185;-63
2021/01/24 01:37:31;;;;;;;9.05;7.75;;;;;;;10.05;52.07;98776.81;1837775;77;21191;-63
2021/01/24 01:39:59;;;;;;;9.23;8.13;;;;;;;10.04;52.03;98786.61;1831074;77;21151;-63
2021/01/24 01:42:26;;;;;;;8.88;7.97;;;;;;;10.05;52.07;98776.81;1834339;77;21556;-62
2021/01/24 01:44:53;;;;;;;9.55;8.13;;;;;;;10.04;52.07;98765.39;1850940;77;21170;-62
2021/01/24 01:47:25;;;;;;;10.25;8.60;;;;;;;10.06;52.09;98768.34;1839597;77;21197;-62
2021/01/24 01:49:54;;;;;;;9.18;7.92;;;;;;;10.06;52.08;98768.34;1828628;77;21191;-61
2021/01/24 01:52:26;;;;;;;9.38;8.10;;;;;;;10.04;52.09;98770.69;1849261;77;21098;-64
2021/01/24 01:54:54;;;;;;;9.35;8.38;;;;;;;10.05;52.09;98768.85;1836362;77;21166;-63
2021/01/24 01:57:24;;;;;;;10.25;8.78;;;;;;;10.05;52.09;98760.89;1851534;77;21099;-63
2021/01/24 01:59:51;;;;;;;9.48;8.13;;;;;;;10.04;52.10;98762.73;1854088;77;21436;-62
2021/01/24 02:02:59;;;;;;;10.10;8.40;;;;;;;10.06;52.12;98760.38;1827558;77;21912;-63
2021/01/24 02:06:02;;;;;;;9.40;8.13;;;;;;;10.06;52.13;98769.16;1842906;77;21189;-62
2021/01/24 02:08:56;;;;;;;9.30;7.85;;;;;;;10.03;52.17;98759.75;1823888;77;21163;-63
2021/01/24 02:11:37;;;;;;;9.63;8.28;;;;;;;10.01;52.22;98755.13;1842063;77;21107;-63
2021/01/24 02:14:22;;;;;;;9.55;8.55;;;;;;;10.00;52.26;98740.73;1815684;77;21375;-62
2021/01/24 02:16:49;;;;;;;10.08;8.48;;;;;;;9.98;52.28;98732.13;1829788;77;21582;-62
2021/01/24 02:19:48;;;;;;;9.28;8.13;;;;;;;9.98;52.30;98739.58;1818543;77;21455;-63
2021/01/24 02:22:32;;;;;;;8.25;7.45;;;;;;;10.03;52.33;98731.07;1822275;77;28207;-62
2021/01/24 02:25:12;;;;;;;9.35;7.60;;;;;;;9.98;52.34;98728.16;1792808;79;21181;-64
2021/01/24 02:27:49;;;;;;;9.33;7.72;;;;;;;9.97;52.37;98724.69;1785192;78;22307;-62
2021/01/24 02:30:24;;;;;;;8.58;7.62;;;;;;;9.97;52.38;98721.22;1775175;79;21583;-63
2021/01/24 02:33:02;;;;;;;8.70;7.80;;;;;;;9.97;52.38;98726.02;1797337;79;21113;-62
2021/01/24 02:35:32;;;;;;;8.35;7.25;;;;;;;9.97;52.43;98724.69;1785056;79;21153;-62
2021/01/24 02:38:01;;;;;;;8.98;7.58;;;;;;;9.97;52.41;98731.32;1785901;79;21157;-62
2021/01/24 02:40:30;;;;;;;8.35;7.17;;;;;;;9.98;52.43;98736.92;1805936;79;21191;-63
2021/01/24 02:42:58;;;;;;;8.28;7.37;;;;;;;9.98;52.45;98735.60;1779504;79;21202;-64
2021/01/24 02:45:25;;;;;;;7.80;6.83;;;;;;;9.99;52.44;98731.14;1781800;79;21150;-63
2021/01/24 02:47:53;;;;;;;7.80;7.00;;;;;;;10.00;52.43;98723.48;1791469;79;21118;-63
2021/01/24 02:50:20;;;;;;;8.50;7.58;;;;;;;10.01;52.46;98717.98;1781167;78;21090;-63
2021/01/24 02:52:48;;;;;;;8.33;7.28;;;;;;;10.01;52.42;98714.01;1776989;79;21388;-63
2021/01/24 02:55:16;;;;;;;8.03;7.25;;;;;;;10.01;52.41;98727.28;1784779;79;21158;-64
2021/01/24 02:57:44;;;;;;;9.18;7.55;;;;;;;10.03;52.39;98715.16;1777202;79;21248;-64
2021/01/24 03:00:12;;;;;;;8.50;7.58;;;;;;;10.04;52.43;98719.43;1801102;79;21837;-63
2021/01/24 03:02:40;;;;;;;8.03;7.08;;;;;;;10.04;52.39;98710.98;1792080;79;21154;-63
2021/01/24 03:05:09;;;;;;;8.10;7.28;;;;;;;10.06;52.41;98719.25;1780451;79;21372;-63
2021/01/24 03:07:36;;;;;;;8.15;7.25;;;;;;;10.06;52.41;98715.27;1798023;79;21637;-63
2021/01/24 03:10:06;;;;;;;7.92;7.03;;;;;;;10.06;52.38;98704.66;1801379;79;21606;-62
2021/01/24 03:12:38;;;;;;;7.58;6.80;;;;;;;10.07;52.37;98707.64;1798240;79;21638;-62
2021/01/24 03:15:07;;;;;;;8.48;7.67;;;;;;;10.07;52.38;98697.84;1777661;79;21138;-63
2021/01/24 03:17:36;;;;;;;7.45;6.67;;;;;;;10.09;52.36;98698.98;1780507;79;22055;-62
2021/01/24 03:20:05;;;;;;;7.20;6.50;;;;;;;10.09;52.36;98699.80;1798740;79;21237;-61
2021/01/24 03:22:36;;;;;;;7.80;6.75;;;;;;;10.10;52.36;98705.91;1783917;79;21152;-62
2021/01/24 03:25:06;;;;;;;8.15;7.08;;;;;;;10.10;52.37;98690.84;1778839;79;21194;-61
2021/01/24 03:27:35;;;;;;;7.65;6.90;;;;;;;10.10;52.38;98683.36;1773718;79;21737;-62
2021/01/24 03:30:04;;;;;;;7.90;6.80;;;;;;;10.10;52.38;98686.01;1803635;79;21203;-62
2021/01/24 03:32:31;;;;;;;7.55;6.80;;;;;;;10.10;52.40;98686.85;1792027;79;21594;-62
2021/01/24 03:34:59;;;;;;;7.80;6.50;;;;;;;10.11;52.40;98671.74;1789160;79;21594;-62
2021/01/24 03:37:26;;;;;;;7.25;6.55;;;;;;;10.11;52.39;98671.23;1792340;79;21172;-63
2021/01/24 03:39:54;;;;;;;8.23;7.05;;;;;;;10.11;52.41;98664.59;1788995;79;21120;-61
2021/01/24 03:42:21;;;;;;;7.58;6.42;;;;;;;10.12;52.40;98665.41;1789644;79;22814;-63
2021/01/24 03:44:48;;;;;;;6.60;5.92;;;;;;;10.13;52.41;98668.39;1778822;79;21643;-63
2021/01/24 03:47:16;;;;;;;7.42;6.62;;;;;;;10.12;52.39;98662.27;1790382;79;21186;-63
2021/01/24 03:49:43;;;;;;;7.47;6.70;;;;;;;10.12;52.41;98658.29;1782215;79;21141;-62
2021/01/24 03:52:11;;;;;;;8.05;7.25;;;;;;;10.13;52.43;98666.55;1792770;79;21134;-63
2021/01/24 03:54:38;;;;;;;8.23;7.33;;;;;;;10.14;52.43;98677.98;1786532;79;22271;-61
2021/01/24 03:57:05;;;;;;;6.87;6.17;;;;;;;10.14;52.40;98665.55;1795707;79;21134;-63
2021/01/24 03:59:33;;;;;;;7.53;6.75;;;;;;;10.15;52.43;98662.38;1782145;79;21106;-61
2021/01/24 04:02:00;;;;;;;6.92;6.20;;;;;;;10.15;52.41;98655.23;1778323;79;21192;-62
2021/01/24 04:04:27;;;;;;;8.03;7.05;;;;;;;10.16;52.42;98661.35;1778769;79;21190;-62
2021/01/24 04:06:55;;;;;;;7.60;6.50;;;;;;;10.16;52.42;98652.91;1777262;79;21459;-63
2021/01/24 04:09:22;;;;;;;7.58;6.30;;;;;;;10.16;52.43;98646.76;1783025;79;21990;-62
2021/01/24 04:11:51;;;;;;;7.00;6.00;;;;;;;10.17;52.42;98659.03;1781233;79;21153;-61
2021/01/24 04:14:18;;;;;;;6.83;6.12;;;;;;;10.16;52.44;98666.17;1780883;79;21811;-63
2021/01/24 04:16:45;;;;;;;7.90;6.37;;;;;;;10.17;52.43;98654.53;1791760;79;21150;-63
2021/01/24 04:19:12;;;;;;;7.28;6.50;;;;;;;10.18;52.46;98653.53;1796739;79;21597;-62
2021/01/24 04:21:40;;;;;;;7.03;5.97;;;;;;;10.18;52.47;98642.11;1786118;79;21202;-61
2021/01/24 04:24:08;;;;;;;6.97;6.22;;;;;;;10.19;52.46;98643.73;1787938;79;21626;-62
2021/01/24 04:26:35;;;;;;;7.30;6.50;;;;;;;10.19;52.46;98647.20;1812406;77;21783;-62
2021/01/24 04:29:03;;;;;;;7.05;6.35;;;;;;;10.20;52.42;98633.45;1825624;78;21134;-63
2021/01/24 04:31:30;;;;;;;7.70;6.25;;;;;;;10.20;52.46;98628.95;1827242;78;21170;-62
2021/01/24 04:33:58;;;;;;;6.90;5.92;;;;;;;10.20;52.48;98638.75;1786495;79;21204;-62
2021/01/24 04:36:26;;;;;;;6.60;5.92;;;;;;;10.19;52.49;98631.27;1798878;79;21174;-63
2021/01/24 04:38:53;;;;;;;7.05;6.35;;;;;;;10.20;52.49;98637.42;1805067;78;21145;-64
2021/01/24 04:41:20;;;;;;;6.75;6.05;;;;;;;10.20;52.50;98638.75;1795660;79;21127;-63
2021/01/24 04:43:47;;;;;;;6.72;6.03;;;;;;;10.21;52.48;98631.90;1799988;78;21359;-62
2021/01/24 04:46:17;;;;;;;6.25;5.65;;;;;;;10.22;52.48;98642.84;1801705;79;21147;-62
2021/01/24 04:48:46;;;;;;;7.47;5.92;;;;;;;10.23;52.50;98646.31;1799867;78;21141;-62
2021/01/24 04:51:13;;;;;;;7.55;6.78;;;;;;;10.24;52.49;98642.66;1755266;79;21175;-61
2021/01/24 04:53:41;;;;;;;6.58;5.97;;;;;;;10.23;52.50;98630.38;1810051;78;21155;-64
2021/01/24 04:56:09;;;;;;;6.37;5.78;;;;;;;10.24;52.50;98638.67;1794206;79;21413;-63
2021/01/24 04:58:37;;;;;;;6.45;5.70;;;;;;;10.23;52.51;98633.85;1796701;78;21169;-64
2021/01/24 05:01:05;;;;;;;6.85;5.60;;;;;;;10.24;52.51;98626.22;1803873;78;21135;-62
2021/01/24 05:03:34;;;;;;;6.28;5.67;;;;;;;10.24;52.52;98626.73;1826761;78;21134;-64
2021/01/24 05:06:03;;;;;;;6.28;5.45;;;;;;;10.23;52.53;98631.20;1828940;78;21167;-65
2021/01/24 05:08:31;;;;;;;6.87;6.17;;;;;;;10.24;52.56;98618.25;1815092;78;21162;-63
2021/01/24 05:11:07;;;;;;;6.95;6.03;;;;;;;10.25;52.54;98617.73;1825813;77;21135;-63
2021/01/24 05:13:35;;;;;;;6.95;6.20;;;;;;;10.25;52.56;98604.47;1823029;78;21123;-62
2021/01/24 05:16:02;;;;;;;6.00;5.40;;;;;;;10.25;52.57;98615.09;1805543;78;21135;-62
2021/01/24 05:18:30;;;;;;;6.33;5.72;;;;;;;10.26;52.59;98611.44;1783212;78;21182;-64
2021/01/24 05:20:58;;;;;;;6.85;5.87;;;;;;;10.25;52.60;98609.77;1803515;78;21771;-62
2021/01/24 05:23:25;;;;;;;6.37;5.53;;;;;;;10.25;52.59;98612.44;1788393;78;21135;-63
2021/01/24 05:25:54;;;;;;;7.53;5.95;;;;;;;10.27;52.60;98617.55;1786080;79;21150;-62
2021/01/24 05:28:27;;;;;;;7.10;6.40;;;;;;;10.26;52.60;98614.09;1803036;79;21106;-63
2021/01/24 05:31:04;;;;;;;6.60;5.70;;;;;;;10.27;52.60;98606.42;1798684;79;21208;-63
2021/01/24 05:33:32;;;;;;;5.97;5.37;;;;;;;10.28;52.62;98609.92;1786346;79;21191;-63
2021/01/24 05:35:59;;;;;;;6.33;5.72;;;;;;;10.27;52.63;98600.30;1788531;79;21653;-63
2021/01/24 05:38:31;;;;;;;6.25;5.62;;;;;;;10.27;52.67;98606.42;1806845;79;21173;-64
2021/01/24 05:41:00;;;;;;;6.20;5.60;;;;;;;10.28;52.66;98614.71;1803541;79;21888;-63
2021/01/24 05:43:30;;;;;;;6.50;5.90;;;;;;;10.27;52.66;98605.09;1802313;79;21208;-62
2021/01/24 05:45:57;;;;;;;6.72;5.85;;;;;;;10.29;52.70;98595.61;1767388;79;21441;-63
2021/01/24 05:48:24;;;;;;;6.12;5.53;;;;;;;10.28;52.69;98598.78;1784181;79;21155;-64
2021/01/24 05:50:52;;;;;;;6.67;5.95;;;;;;;10.29;52.70;98603.06;1791138;79;21193;-63
2021/01/24 05:53:19;;;;;;;6.42;5.72;;;;;;;10.30;52.68;98602.58;1794281;79;21127;-63
2021/01/24 05:55:46;;;;;;;6.42;5.55;;;;;;;10.30;52.69;98610.06;1802816;79;21161;-63
2021/01/24 05:58:23;;;;;;;7.15;6.45;;;;;;;10.31;52.69;98596.27;1810552;79;21352;-64
2021/01/24 06:00:52;;;;;;;6.00;5.40;;;;;;;10.31;52.71;98594.42;1796565;79;21345;-64
2021/01/24 06:03:20;;;;;;;6.12;5.53;;;;;;;10.31;52.71;98594.94;1793235;79;21220;-62
2021/01/24 06:05:48;;;;;;;6.65;5.95;;;;;;;10.31;52.72;98589.12;1791200;79;21175;-63
2021/01/24 06:08:15;;;;;;;7.00;6.33;;;;;;;10.31;52.72;98592.28;1787874;79;21126;-64
2021/01/24 06:10:44;;;;;;;6.35;5.75;;;;;;;10.33;52.73;98595.05;1801461;79;21360;-63
2021/01/24 06:13:16;;;;;;;6.08;5.47;;;;;;;10.32;52.74;98584.14;1795876;79;21170;-63
2021/01/24 06:15:44;;;;;;;6.83;6.12;;;;;;;10.33;52.73;98581.78;1793428;79;21090;-63
2021/01/24 06:18:14;;;;;;;7.00;6.30;;;;;;;10.33;52.74;98587.60;1791984;79;21098;-63
2021/01/24 06:20:48;;;;;;;6.67;5.97;;;;;;;10.34;52.75;98585.27;1813268;79;21124;-64
2021/01/24 06:23:28;;;;;;;6.28;5.65;;;;;;;10.34;52.75;98572.00;1802239;78;21182;-64
2021/01/24 06:26:04;;;;;;;7.50;6.70;;;;;;;10.35;52.76;98573.14;1795890;79;21493;-64
2021/01/24 06:28:34;;;;;;;6.03;5.40;;;;;;;10.34;52.75;98563.52;1804063;78;21103;-63
2021/01/24 06:31:01;;;;;;;6.03;5.42;;;;;;;10.35;52.79;98562.52;1794597;79;21132;-64
2021/01/24 06:33:29;;;;;;;6.90;5.95;;;;;;;10.36;52.79;98572.62;1787757;79;21208;-63
2021/01/24 06:36:00;;;;;;;6.43;5.77;;;;;;;10.37;52.79;98572.92;1792385;79;21457;-62
2021/01/24 06:38:31;;;;;;;5.75;5.12;;;;;;;10.38;52.78;98579.88;1797668;79;21167;-63
2021/01/24 06:41:01;;;;;;;6.08;5.47;;;;;;;10.37;52.78;98571.11;1805581;79;21231;-62
2021/01/24 06:43:47;;;;;;;6.62;5.92;;;;;;;10.38;52.78;98572.73;1810363;79;21194;-63
2021/01/24 06:46:33;;;;;;;6.60;5.83;;;;;;;10.39;52.79;98574.39;1793442;79;21094;-63
2021/01/24 06:49:00;;;;;;;5.90;5.35;;;;;;;10.39;52.79;98576.20;1811819;79;22216;-63
2021/01/24 06:51:40;;;;;;;6.20;5.60;;;;;;;10.39;52.83;98578.85;1798657;79;21180;-63
2021/01/24 06:54:18;;;;;;;5.60;5.03;;;;;;;10.39;52.82;98583.68;1798788;79;21127;-63
2021/01/24 06:56:48;;;;;;;6.55;5.90;;;;;;;10.39;52.83;98590.31;1793411;79;21090;-63
2021/01/24 06:59:17;;;;;;;6.85;6.15;;;;;;;10.40;52.84;98584.48;1806692;79;21130;-64
2021/01/24 07:01:44;;;;;;;6.05;5.45;;;;;;;10.41;52.85;98581.64;1746264;79;21570;-63
2021/01/24 07:04:30;;;;;;;6.95;6.15;;;;;;;10.42;52.85;98589.09;1799471;79;21747;-65
2021/01/24 07:07:13;;;;;;;6.65;5.90;;;;;;;10.42;52.84;98579.29;1787305;79;21168;-63
2021/01/24 07:09:42;;;;;;;6.90;6.15;;;;;;;10.42;52.84;98581.13;1801143;79;21577;-65
2021/01/24 07:12:10;;;;;;;6.90;6.20;;;;;;;10.41;52.88;98581.64;1805395;79;21121;-63
2021/01/24 07:14:43;;;;;;;7.97;6.45;;;;;;;10.43;52.88;98577.47;1805999;79;23593;-64
2021/01/24 07:17:16;;;;;;;6.30;5.70;;;;;;;10.45;52.87;98577.25;1794910;79;21743;-64
2021/01/24 07:19:52;;;;;;;7.12;6.15;;;;;;;10.45;52.86;98574.59;1810658;79;21082;-63
2021/01/24 07:22:24;;;;;;;6.87;6.12;;;;;;;10.46;52.87;98576.25;1791995;78;21173;-66
2021/01/24 07:24:53;;;;;;;6.75;6.00;;;;;;;10.45;52.88;98572.78;1796260;78;21126;-64
2021/01/24 07:27:28;;;;;;;6.85;6.15;;;;;;;10.46;52.91;98571.75;1789876;77;21282;-63
2021/01/24 07:29:56;;;;;;;7.03;6.33;;;;;;;10.47;52.88;98568.59;1792939;78;22009;-64
2021/01/24 07:32:24;;;;;;;6.85;6.15;;;;;;;10.48;52.88;98567.58;1794612;78;21161;-63
2021/01/24 07:34:54;;;;;;;7.75;6.55;;;;;;;10.48;52.90;98571.56;1789609;78;21158;-63
2021/01/24 07:37:21;;;;;;;8.08;6.75;;;;;;;10.50;52.89;98569.53;1791814;78;21142;-63
2021/01/24 07:39:51;;;;;;;7.10;6.40;;;;;;;10.50;52.90;98564.22;1786386;78;22502;-63
2021/01/24 07:42:18;;;;;;;7.30;6.60;;;;;;;10.51;52.89;98564.03;1804177;78;21193;-63
2021/01/24 07:44:46;;;;;;;7.47;6.67;;;;;;;10.51;52.88;98570.67;1794474;78;21107;-63
2021/01/24 07:47:15;;;;;;;7.47;6.60;;;;;;;10.53;52.88;98569.16;1801800;78;21146;-63
2021/01/24 07:49:43;;;;;;;8.05;7.25;;;;;;;10.53;52.89;98571.80;1786582;78;21122;-62
2021/01/24 07:52:10;;;;;;;6.97;6.20;;;;;;;10.54;52.90;98576.09;1789328;78;21368;-62
2021/01/24 07:54:38;;;;;;;8.28;6.87;;;;;;;10.55;52.90;98561.81;1787482;78;21649;-63
2021/01/24 07:57:07;;;;;;;9.70;7.08;;;;;;;10.54;52.90;98571.59;1797810;78;21149;-63
2021/01/24 07:59:35;;;;;;;8.38;7.28;;;;;;;10.54;52.92;98570.26;1795199;78;21155;-64
2021/01/24 08:02:06;;;;;;;7.60;6.65;;;;;;;10.56;52.92;98568.23;1774346;78;21173;-63
2021/01/24 08:04:36;;;;;;;8.90;7.58;;;;;;;10.56;52.91;98556.27;1785839;78;21385;-63
2021/01/24 08:07:10;;;;;;;7.95;7.15;;;;;;;10.57;52.93;98551.80;1791417;78;21165;-64
2021/01/24 08:09:39;;;;;;;8.63;7.72;;;;;;;10.58;52.93;98554.23;1787390;78;21118;-63
2021/01/24 08:12:09;;;;;;;8.20;6.78;;;;;;;10.57;52.93;98550.48;1798234;78;21134;-63
2021/01/24 08:14:38;;;;;;;8.38;7.47;;;;;;;10.58;52.95;98556.89;1787519;78;21185;-64
2021/01/24 08:17:12;;;;;;;7.85;6.97;;;;;;;10.59;52.96;98554.56;1788486;78;21380;-64
2021/01/24 08:19:39;;;;;;;7.58;6.75;;;;;;;10.59;52.97;98539.14;1790205;78;21165;-62
2021/01/24 08:24:40;;;;;;;8.73;7.47;;;;;;;10.65;52.99;98541.01;1827718;75;28262;-63
2021/01/24 08:27:08;;;;;;;8.93;8.03;;;;;;;10.56;53.08;98557.60;1785675;78;21415;-62
2021/01/24 08:29:35;;;;;;;9.70;8.58;;;;;;;10.57;53.07;98535.88;1781730;78;22450;-65
2021/01/24 08:32:04;;;;;;;9.13;7.03;;;;;;;10.59;53.05;98531.99;1761104;77;21202;-64
2021/01/24 08:34:32;;;;;;;7.97;6.97;;;;;;;10.60;53.04;98544.27;1779296;78;21633;-62
2021/01/24 08:37:01;;;;;;;9.48;7.67;;;;;;;10.61;53.04;98531.80;1787058;77;21166;-64
2021/01/24 08:39:28;;;;;;;8.10;7.12;;;;;;;10.63;53.06;98520.47;1789904;78;21048;-64
2021/01/24 08:41:56;;;;;;;8.60;7.70;;;;;;;10.64;53.45;98536.70;1769407;78;21392;-65
2021/01/24 08:44:23;;;;;;;9.10;8.03;;;;;;;10.65;53.54;98517.11;1783817;78;21158;-65
2021/01/24 08:46:52;;;;;;;9.33;7.80;;;;;;;10.66;53.55;98513.41;1781857;77;22093;-64
2021/01/24 08:49:25;;;;;;;9.55;8.55;;;;;;;10.68;53.55;98519.38;1772860;77;21551;-64
2021/01/24 08:51:59;;;;;;;8.30;7.30;;;;;;;10.69;53.53;98527.64;1794345;78;21622;-64
2021/01/24 08:54:37;;;;;;;9.15;8.13;;;;;;;10.69;53.52;98521.00;1787622;79;21365;-64
2021/01/24 08:57:15;;;;;;;9.15;7.83;;;;;;;10.71;53.50;98526.93;1795756;77;21473;-65
2021/01/24 08:59:53;;;;;;;9.58;8.58;;;;;;;10.71;53.49;98513.64;1803012;77;21186;-64
2021/01/24 09:02:31;;;;;;;11.10;8.43;;;;;;;10.72;53.47;98531.23;1786760;79;22469;-63
2021/01/24 09:05:00;;;;;;;8.65;7.78;;;;;;;10.73;53.48;98529.39;1798215;77;21173;-65
2021/01/24 09:07:44;;;;;;;10.48;7.87;;;;;;;10.74;53.47;98516.41;1795886;78;21349;-65
2021/01/24 09:10:22;;;;;;;8.98;7.60;;;;;;;10.74;53.45;98521.23;1788124;79;21188;-66
2021/01/24 09:12:52;;;;;;;10.08;8.18;;;;;;;10.74;53.44;98511.94;1789723;78;21134;-64
2021/01/24 09:15:25;;;;;;;10.20;8.10;;;;;;;10.76;53.44;98517.05;1785261;78;21214;-64
2021/01/24 09:17:54;;;;;;;9.85;8.33;;;;;;;10.76;53.44;98517.86;1726023;81;21504;-63
2021/01/24 09:20:22;;;;;;;9.60;7.95;;;;;;;10.78;53.42;98524.31;1764370;78;21237;-63
2021/01/24 09:22:50;;;;;;;8.90;7.58;;;;;;;10.79;53.40;98512.66;1755398;79;21159;-63
2021/01/24 09:25:18;;;;;;;9.20;8.08;;;;;;;10.80;53.36;98514.30;1778465;79;21169;-66
2021/01/24 09:27:46;;;;;;;10.72;8.18;;;;;;;10.81;53.38;98502.13;1789700;79;21194;-64
2021/01/24 09:30:16;;;;;;;10.40;7.70;;;;;;;10.82;53.35;98497.66;1788149;77;21248;-67
2021/01/24 09:32:43;;;;;;;11.12;8.40;;;;;;;10.83;53.35;98501.94;1801132;79;21435;-65
2021/01/24 09:35:12;;;;;;;9.88;8.60;;;;;;;10.84;53.33;98502.26;1775990;77;21203;-67
2021/01/24 09:37:39;;;;;;;8.43;7.53;;;;;;;10.85;53.31;98495.09;1766219;79;21576;-64
2021/01/24 09:40:09;;;;;;;9.38;7.87;;;;;;;10.86;53.30;98496.23;1768720;79;21653;-67
2021/01/24 09:42:37;;;;;;;9.88;8.83;;;;;;;10.87;53.30;98493.87;1772605;77;21214;-64
2021/01/24 09:45:07;;;;;;;10.82;8.20;;;;;;;10.88;53.28;98488.06;1776741;78;21197;-66
2021/01/24 09:47:35;;;;;;;10.30;7.92;;;;;;;10.89;53.27;98482.53;1782947;77;21217;-65
2021/01/24 09:50:06;;;;;;;8.83;7.30;;;;;;;10.90;53.26;98484.70;1796849;79;21170;-65
2021/01/24 09:52:33;;;;;;;9.00;8.05;;;;;;;10.91;53.25;98480.48;1776177;77;21773;-64
2021/01/24 09:55:00;;;;;;;10.03;8.15;;;;;;;10.92;53.24;98472.84;1792642;79;21551;-66
2021/01/24 09:57:27;;;;;;;9.58;7.83;;;;;;;10.94;53.23;98480.09;1774519;79;21370;-67
2021/01/24 09:59:54;;;;;;;8.80;7.53;;;;;;;10.96;53.22;98476.73;1790453;79;21151;-65
2021/01/24 10:02:22;;;;;;;8.23;7.35;;;;;;;10.97;53.19;98481.52;1789327;79;21150;-64
2021/01/24 10:04:50;;;;;;;9.30;7.72;;;;;;;10.97;53.18;98469.08;1770053;79;21182;-65
2021/01/24 10:07:17;;;;;;;9.85;7.70;;;;;;;11.00;53.16;98465.19;1784182;79;21150;-65
2021/01/24 10:09:46;;;;;;;10.10;8.43;;;;;;;11.00;53.14;98459.36;1791062;79;21206;-64
2021/01/24 10:12:13;;;;;;;8.55;7.62;;;;;;;11.02;53.12;98468.46;1786905;79;21209;-66
2021/01/24 10:14:40;;;;;;;9.35;7.95;;;;;;;11.05;53.10;98471.22;1785802;79;21075;-66
2021/01/24 10:17:08;;;;;;;9.18;8.18;;;;;;;11.06;53.10;98466.22;1803791;77;21086;-65
2021/01/24 10:19:36;;;;;;;8.40;7.33;;;;;;;11.06;53.09;98463.05;1785729;79;21143;-66
2021/01/24 10:22:03;;;;;;;9.78;8.20;;;;;;;11.07;53.07;98478.47;1773337;77;21215;-64
2021/01/24 10:24:30;;;;;;;9.63;7.20;;;;;;;11.08;53.07;98458.86;1794097;77;21605;-65
2021/01/24 10:26:58;;;;;;;8.28;7.37;;;;;;;11.08;53.07;98454.36;1806931;78;21189;-65
2021/01/24 10:29:27;;;;;;;9.70;7.47;;;;;;;11.10;53.04;98449.66;1805329;78;21141;-66
2021/01/24 10:31:54;;;;;;;9.35;7.17;;;;;;;11.11;53.04;98463.27;1813494;78;21115;-65
2021/01/24 10:34:22;;;;;;;8.23;7.40;;;;;;;11.13;53.02;98442.62;1806339;77;21195;-66
2021/01/24 10:36:49;;;;;;;9.25;7.75;;;;;;;11.14;53.00;98442.10;1806942;78;21983;-66
2021/01/24 10:39:16;;;;;;;8.93;7.03;;;;;;;11.15;52.99;98453.86;1803527;77;21102;-65
2021/01/24 10:41:44;;;;;;;8.15;7.08;;;;;;;11.16;52.96;98443.55;1800950;78;21169;-66
2021/01/24 10:44:14;;;;;;;8.03;6.75;;;;;;;11.19;52.94;98439.14;1797830;77;21178;-72
2021/01/24 10:46:41;;;;;;;18.48;10.58;;;;;;;11.19;52.94;98430.36;1801006;78;21189;-73
2021/01/24 10:49:10;;;;;;;14.20;8.95;;;;;;;11.35;65.72;98441.89;1807194;78;21129;-63
2021/01/24 10:51:38;;;;;;;14.68;10.03;;;;;;;12.03;69.23;98445.31;1805418;78;21225;-72
2021/01/24 10:54:06;;;;;;;18.98;10.43;;;;;;;12.90;69.53;98439.08;1795745;77;21197;-69
2021/01/24 10:56:33;;;;;;;15.68;9.03;;;;;;;13.60;68.96;98426.15;1807541;78;21551;-68
2021/01/24 10:59:00;;;;;;;17.02;9.00;;;;;;;14.20;68.00;98441.04;1809830;78;21151;-66
2021/01/24 11:01:28;;;;;;;17.52;10.08;;;;;;;14.71;66.93;98437.13;1795534;78;21178;-66
2021/01/24 11:03:55;;;;;;;20.23;10.30;;;;;;;15.12;65.68;98411.45;1803642;78;21760;-66
2021/01/24 11:06:22;;;;;;;19.37;10.78;;;;;;;15.62;64.39;98424.09;1795662;78;21149;-66
2021/01/24 11:08:50;;;;;;;19.80;10.32;;;;;;;16.00;63.25;98414.80;1803398;78;21607;-67
2021/01/24 11:11:17;;;;;;;17.92;10.00;;;;;;;16.33;62.27;98414.66;1795524;78;21199;-69
2021/01/24 11:13:44;;;;;;;16.57;9.58;;;;;;;16.56;60.08;98408.41;1806645;78;21196;-68
2021/01/24 11:16:11;;;;;;;18.55;9.98;;;;;;;16.61;58.07;98405.80;1811807;78;21145;-68
2021/01/24 11:18:39;;;;;;;17.50;8.18;;;;;;;16.57;56.34;98404.66;1818690;78;21145;-70
2021/01/24 11:21:07;;;;;;;13.03;8.75;;;;;;;16.46;55.13;98409.83;1810566;78;21157;-70
2021/01/24 11:23:34;;;;;;;14.53;8.98;;;;;;;16.35;54.36;98402.64;1828036;78;21353;-67
2021/01/24 11:26:01;;;;;;;14.15;8.25;;;;;;;16.19;53.86;98404.20;1828150;78;21150;-68
2021/01/24 11:28:28;;;;;;;13.50;8.18;;;;;;;16.06;53.60;98405.81;1828193;78;21534;-68
2021/01/24 11:30:56;;;;;;;12.70;8.63;;;;;;;15.92;53.50;98399.91;1826977;78;21161;-69
2021/01/24 11:33:23;;;;;;;13.28;8.23;;;;;;;15.79;53.59;98396.94;1827049;78;21169;-68
2021/01/24 11:35:52;;;;;;;14.60;8.33;;;;;;;15.65;53.62;98394.20;1828089;76;21142;-68
2021/01/24 11:38:20;;;;;;;12.53;8.85;;;;;;;15.51;53.72;98405.14;1810297;78;21094;-68
2021/01/24 11:40:47;;;;;;;15.50;7.95;;;;;;;15.38;53.81;98391.17;1795530;78;21111;-69
2021/01/24 11:43:14;;;;;;;13.15;8.60;;;;;;;15.25;53.95;98394.88;1810809;78;21199;-68
2021/01/24 11:45:43;;;;;;;11.40;7.90;;;;;;;15.12;54.01;98388.72;1825517;78;21102;-69
2021/01/24 11:48:10;;;;;;;14.63;7.53;;;;;;;15.01;54.07;98409.56;1795599;78;23510;-68